Time;durP1;ratioP1;P1;durP2;ratioP2;P2;SDS_P1;SDS_P2;PMS_P1;PMS_P2;Temp;Humidity;BMP_temperature;BMP_pressure;BME280_temperature;BME280_humidity;BME280_pressure;Samples;Min_cycle;Max_cycle;Signal;HPM_P1;HPM_P2
2023/07/23 00:00:18;;;;;;;3.03;2.40;;;;;;;16.27;100.00;95740.94;1017851;29;20016;-72
2023/07/23 00:00:50;;;;;;;3.42;2.30;;;;;;;16.29;100.00;95745.13;1014411;29;20024;-72
2023/07/23 00:01:20;;;;;;;5.03;2.50;;;;;;;16.29;100.00;95751.19;1018592;29;20090;-74
2023/07/23 00:01:52;;;;;;;7.18;2.53;;;;;;;16.24;100.00;95744.16;1024203;28;20058;-71
2023/07/23 00:02:22;;;;;;;4.47;2.22;;;;;;;16.25;100.00;95748.38;1026472;28;20022;-72
2023/07/23 00:02:53;;;;;;;2.92;2.25;;;;;;;16.24;100.00;95743.38;1026561;28;20058;-72
2023/07/23 00:03:23;;;;;;;3.58;2.53;;;;;;;16.24;100.00;95744.16;1022514;28;20027;-71
2023/07/23 00:03:54;;;;;;;4.47;2.55;;;;;;;16.24;100.00;95746.81;1026597;28;20070;-72
2023/07/23 00:04:24;;;;;;;3.38;2.85;;;;;;;16.22;100.00;95740.25;1026381;28;20030;-72
2023/07/23 00:04:55;;;;;;;2.72;2.00;;;;;;;16.15;100.00;95732.72;1026705;28;20075;-74
2023/07/23 00:05:25;;;;;;;3.47;2.45;;;;;;;16.22;100.00;95741.03;1026318;28;20026;-73
2023/07/23 00:05:56;;;;;;;3.60;2.30;;;;;;;16.22;100.00;95748.19;1022524;29;20019;-70
2023/07/23 00:06:26;;;;;;;4.10;2.35;;;;;;;16.19;100.00;95741.63;1022308;29;20027;-72
2023/07/23 00:06:57;;;;;;;4.22;2.38;;;;;;;16.18;100.00;95742.69;1018351;29;20039;-72
2023/07/23 00:07:27;;;;;;;4.78;2.33;;;;;;;16.18;100.00;95742.69;1018574;29;20055;-71
2023/07/23 00:07:58;;;;;;;4.60;2.88;;;;;;;16.15;100.00;95737.22;1018623;29;20500;-72
2023/07/23 00:08:28;;;;;;;3.20;2.47;;;;;;;16.15;100.00;95737.22;1014739;28;20024;-72
2023/07/23 00:08:59;;;;;;;3.75;2.50;;;;;;;16.14;100.00;95743.59;1026306;28;20027;-71
2023/07/23 00:09:29;;;;;;;3.35;2.25;;;;;;;15.92;100.00;95713.34;1022549;29;20082;-72
2023/07/23 00:10:00;;;;;;;3.60;2.33;;;;;;;16.07;100.00;95744.00;1022703;28;20028;-73
2023/07/23 00:10:30;;;;;;;4.18;2.75;;;;;;;15.99;100.00;95728.81;1029873;28;20484;-71
2023/07/23 00:11:01;;;;;;;5.85;2.65;;;;;;;15.97;100.00;95733.63;1026278;28;20027;-72
2023/07/23 00:11:31;;;;;;;4.07;2.67;;;;;;;16.00;100.00;95744.41;1030541;28;20022;-72
2023/07/23 00:12:02;;;;;;;4.05;2.55;;;;;;;15.89;100.00;95729.81;1022421;29;20083;-72
2023/07/23 00:12:32;;;;;;;3.35;2.30;;;;;;;15.95;100.00;95739.22;1022344;28;20019;-73
2023/07/23 00:13:03;;;;;;;3.33;2.08;;;;;;;15.92;100.00;95750.38;1022529;29;20516;-72
2023/07/23 00:13:33;;;;;;;5.00;2.83;;;;;;;15.90;100.00;95751.78;1018798;28;20147;-71
2023/07/23 00:14:04;;;;;;;3.05;2.35;;;;;;;15.72;100.00;95725.13;1026106;28;20023;-74
2023/07/23 00:14:34;;;;;;;3.85;2.20;;;;;;;15.88;100.00;95748.63;1026368;28;20432;-71
2023/07/23 00:15:05;;;;;;;3.78;2.33;;;;;;;15.88;100.00;95748.63;1022639;28;20034;-72
2023/07/23 00:15:35;;;;;;;7.60;2.45;;;;;;;15.87;100.00;95747.06;1026427;28;20034;-72
2023/07/23 00:16:06;;;;;;;4.63;2.25;;;;;;;15.87;100.00;95747.06;1025323;28;20212;-72
2023/07/23 00:16:36;;;;;;;3.25;2.63;;;;;;;15.87;100.00;95747.06;1018422;29;20028;-72
2023/07/23 00:17:08;;;;;;;5.38;2.40;;;;;;;15.86;100.00;95748.13;1014639;29;20039;-73
2023/07/23 00:17:39;;;;;;;4.18;2.60;;;;;;;15.85;100.00;95750.00;1012414;29;20025;-72
2023/07/23 00:18:09;;;;;;;4.18;2.65;;;;;;;15.84;100.00;95742.38;1011331;29;20035;-73
2023/07/23 00:18:40;;;;;;;3.08;2.42;;;;;;;15.87;100.00;95749.72;1026224;28;20488;-70
2023/07/23 00:19:15;;;;;;;2.53;2.20;;;;;;;15.85;100.00;95747.34;1026528;28;20033;-71
2023/07/23 00:19:45;;;;;;;5.25;2.72;;;;;;;15.82;100.00;95745.31;1026330;28;20023;-72
2023/07/23 00:20:16;;;;;;;3.92;2.85;;;;;;;15.82;100.00;95745.31;1022420;29;20072;-72
2023/07/23 00:20:46;;;;;;;3.78;2.53;;;;;;;15.75;100.00;95735.13;1021564;29;20606;-71
2023/07/23 00:21:17;;;;;;;4.63;2.70;;;;;;;15.75;100.00;95739.63;1014358;29;20039;-72
2023/07/23 00:21:48;;;;;;;3.42;2.45;;;;;;;15.78;100.00;95750.41;1014681;29;20395;-71
2023/07/23 00:22:18;;;;;;;3.47;2.92;;;;;;;15.79;100.00;95745.88;1018376;29;20063;-73
2023/07/23 00:22:49;;;;;;;3.88;2.50;;;;;;;15.77;100.00;95740.13;1014807;29;20031;-70
2023/07/23 00:23:19;;;;;;;4.50;3.17;;;;;;;15.76;100.00;95739.34;1018593;29;20016;-71
2023/07/23 00:23:50;;;;;;;3.60;2.70;;;;;;;15.74;100.00;95738.84;1018616;29;20020;-72
2023/07/23 00:24:20;;;;;;;6.10;2.42;;;;;;;15.74;100.00;95738.06;1014632;29;20031;-72
2023/07/23 00:24:56;;;;;;;5.88;2.83;;;;;;;15.72;100.00;95740.22;1022581;28;20031;-71
2023/07/23 00:25:27;;;;;;;5.35;2.60;;;;;;;15.65;100.00;95729.22;1025572;28;20055;-72
2023/07/23 00:25:57;;;;;;;6.03;3.10;;;;;;;15.64;100.00;95738.25;1023247;28;20062;-70
2023/07/23 00:26:28;;;;;;;5.10;2.60;;;;;;;15.68;100.00;95736.59;1018413;29;20024;-72
2023/07/23 00:26:59;;;;;;;3.78;2.55;;;;;;;15.68;100.00;95745.31;1018284;29;20079;-70
2023/07/23 00:27:29;;;;;;;4.50;2.40;;;;;;;15.59;100.00;95740.97;1018620;29;20071;-71
2023/07/23 00:28:00;;;;;;;6.40;2.67;;;;;;;15.63;100.00;95736.69;1014925;28;20028;-72
2023/07/23 00:28:30;;;;;;;5.60;2.47;;;;;;;15.56;100.00;95734.44;1018442;29;20012;-73
2023/07/23 00:29:01;;;;;;;2.65;2.13;;;;;;;15.61;100.00;95754.69;1014407;29;20024;-70
2023/07/23 00:29:31;;;;;;;6.38;2.90;;;;;;;15.53;100.00;95737.66;1018374;29;20671;-71
2023/07/23 00:30:03;;;;;;;5.07;2.33;;;;;;;15.57;100.00;95750.00;1022420;29;20111;-72
2023/07/23 00:30:35;;;;;;;9.68;3.00;;;;;;;15.53;100.00;95743.72;1017731;29;20027;-73
2023/07/23 00:31:05;;;;;;;3.97;2.60;;;;;;;15.54;100.00;95750.56;1017726;29;20465;-70
2023/07/23 00:31:36;;;;;;;5.60;2.92;;;;;;;15.50;100.00;95743.53;1014821;29;20020;-71
2023/07/23 00:32:06;;;;;;;3.15;2.78;;;;;;;15.53;100.00;95748.22;1014495;29;20024;-72
2023/07/23 00:32:37;;;;;;;4.35;2.78;;;;;;;15.53;100.00;95748.22;1018563;29;20039;-72
2023/07/23 00:33:07;;;;;;;4.07;2.45;;;;;;;15.53;100.00;95748.22;1021470;29;20031;-72
2023/07/23 00:33:38;;;;;;;6.78;2.63;;;;;;;15.52;100.00;95754.59;1018346;28;20059;-72
2023/07/23 00:34:09;;;;;;;5.53;2.45;;;;;;;15.51;100.00;95745.09;1022469;29;20023;-70
2023/07/23 00:34:40;;;;;;;3.35;2.42;;;;;;;15.45;100.00;95747.03;1022349;28;20019;-71
2023/07/23 00:35:10;;;;;;;4.95;2.70;;;;;;;15.49;100.00;95750.69;1026654;28;20034;-72
2023/07/23 00:35:41;;;;;;;3.92;2.65;;;;;;;15.49;100.00;95750.69;1028563;28;20113;-72
2023/07/23 00:36:11;;;;;;;4.65;2.45;;;;;;;15.47;100.00;95754.69;1022484;28;20131;-71
2023/07/23 00:36:42;;;;;;;5.72;2.50;;;;;;;15.45;100.00;95747.03;1018393;29;20036;-73
2023/07/23 00:37:12;;;;;;;3.05;2.25;;;;;;;15.47;100.00;95752.03;1010629;29;20465;-71
2023/07/23 00:37:43;;;;;;;10.32;4.25;;;;;;;15.46;100.00;95753.09;1014509;29;20028;-72
2023/07/23 00:38:13;;;;;;;3.03;2.20;;;;;;;15.43;100.00;95748.44;1017582;29;20525;-71
2023/07/23 00:38:43;;;;;;;3.03;2.47;;;;;;;15.42;100.00;95752.91;1014600;29;20063;-74
2023/07/23 00:39:14;;;;;;;4.28;2.63;;;;;;;15.41;100.00;95754.00;1018586;29;20024;-73
2023/07/23 00:39:44;;;;;;;4.32;2.80;;;;;;;15.39;100.00;95752.72;1018335;28;20378;-72
2023/07/23 00:40:15;;;;;;;4.25;2.70;;;;;;;15.29;100.00;95735.97;1026527;28;20035;-72
2023/07/23 00:40:45;;;;;;;5.38;3.08;;;;;;;15.40;100.00;95754.28;1025471;28;20129;-73
2023/07/23 00:41:16;;;;;;;3.03;2.55;;;;;;;15.38;100.00;95751.94;1026357;28;20090;-71
2023/07/23 00:41:46;;;;;;;3.42;2.47;;;;;;;15.38;100.00;95751.16;1026230;28;20551;-71
2023/07/23 00:42:17;;;;;;;3.95;2.63;;;;;;;15.35;100.00;95751.72;1026462;28;20033;-71
2023/07/23 00:42:47;;;;;;;5.15;2.33;;;;;;;15.35;100.00;95751.72;1030432;28;20025;-71
2023/07/23 00:43:17;;;;;;;3.72;2.85;;;;;;;15.32;100.00;95748.63;1030241;28;20026;-71
2023/07/23 00:43:48;;;;;;;3.60;2.78;;;;;;;15.28;100.00;95750.25;1026297;28;20477;-71
2023/07/23 00:44:18;;;;;;;7.03;2.97;;;;;;;15.30;100.00;95749.97;1018412;29;20054;-72
2023/07/23 00:44:49;;;;;;;5.45;2.53;;;;;;;15.28;100.00;95755.53;1022318;29;20058;-71
2023/07/23 00:45:19;;;;;;;7.28;2.95;;;;;;;15.27;100.00;95755.84;1022377;28;20030;-72
2023/07/23 00:45:50;;;;;;;3.30;2.47;;;;;;;15.20;100.00;95745.66;1022247;29;20461;-71
2023/07/23 00:46:20;;;;;;;3.33;2.80;;;;;;;15.24;100.00;95751.13;1018267;29;20024;-72
2023/07/23 00:46:51;;;;;;;4.00;2.75;;;;;;;15.20;100.00;95750.16;1018519;29;20187;-72
2023/07/23 00:47:22;;;;;;;4.70;2.35;;;;;;;15.18;100.00;95753.06;1018827;28;20066;-71
2023/07/23 00:47:53;;;;;;;4.03;2.60;;;;;;;15.15;100.00;95748.38;1022540;28;20097;-71
2023/07/23 00:48:23;;;;;;;4.45;2.70;;;;;;;15.12;100.00;95742.88;1018293;29;20023;-71
2023/07/23 00:48:54;;;;;;;4.55;2.88;;;;;;;15.07;100.00;95746.41;1018509;29;20680;-72
2023/07/23 00:49:24;;;;;;;4.13;3.10;;;;;;;15.11;100.00;95744.75;1018376;29;20032;-70
2023/07/23 00:49:55;;;;;;;4.80;2.70;;;;;;;15.12;100.00;95751.59;1016694;29;20382;-71
2023/07/23 00:50:29;;;;;;;5.03;2.65;;;;;;;15.07;100.00;95749.03;1013856;29;20037;-71
2023/07/23 00:50:59;;;;;;;3.58;2.65;;;;;;;15.05;100.00;95743.25;1022096;29;20479;-71
2023/07/23 00:51:30;;;;;;;4.53;2.90;;;;;;;15.08;100.00;95753.25;1018237;29;20031;-74
2023/07/23 00:52:00;;;;;;;3.17;2.72;;;;;;;15.00;100.00;95736.22;1014186;29;20016;-72
2023/07/23 00:52:30;;;;;;;4.22;2.70;;;;;;;15.03;100.00;95745.41;1018438;29;20019;-72
2023/07/23 00:53:01;;;;;;;4.15;3.00;;;;;;;14.98;100.00;95741.00;1022373;28;20027;-71
2023/07/23 00:53:31;;;;;;;3.65;2.80;;;;;;;15.00;100.00;95751.28;1018200;29;20024;-71
2023/07/23 00:54:03;;;;;;;4.78;2.85;;;;;;;14.98;100.00;95748.91;1023160;29;20043;-72
2023/07/23 00:54:33;;;;;;;3.92;3.03;;;;;;;14.99;100.00;95749.69;1019197;29;20023;-72
2023/07/23 00:55:04;;;;;;;4.97;2.90;;;;;;;14.94;100.00;95749.78;1017203;29;20076;-71
2023/07/23 00:55:35;;;;;;;5.47;3.00;;;;;;;14.90;100.00;95740.88;1017109;29;20609;-71
2023/07/23 00:56:05;;;;;;;3.33;2.38;;;;;;;14.85;100.00;95739.09;1019069;29;20027;-72
2023/07/23 00:56:36;;;;;;;4.35;2.90;;;;;;;14.94;100.00;95747.94;1015135;29;20410;-71
2023/07/23 00:57:07;;;;;;;6.20;3.80;;;;;;;14.90;100.00;95746.16;1015233;29;20050;-72
2023/07/23 00:57:38;;;;;;;3.92;2.92;;;;;;;14.91;100.00;95745.09;1015212;29;20022;-71
2023/07/23 00:58:08;;;;;;;5.03;3.35;;;;;;;14.91;100.00;95742.44;1015214;29;20022;-71
2023/07/23 00:58:39;;;;;;;4.30;2.72;;;;;;;14.91;100.00;95745.88;1014264;29;20083;-72
2023/07/23 00:59:09;;;;;;;4.90;2.80;;;;;;;14.84;100.00;95740.94;1015353;29;20040;-72
2023/07/23 00:59:40;;;;;;;3.13;2.20;;;;;;;14.85;100.00;95744.38;1015172;29;20016;-71
2023/07/23 01:00:10;;;;;;;4.45;2.83;;;;;;;14.87;100.00;95742.25;1023167;28;20027;-71
2023/07/23 01:00:41;;;;;;;5.57;3.17;;;;;;;14.88;100.00;95748.31;1026428;28;20026;-72
2023/07/23 01:01:11;;;;;;;3.80;2.72;;;;;;;14.88;100.00;95757.00;1023394;28;20082;-72
2023/07/23 01:01:42;;;;;;;6.57;3.00;;;;;;;14.87;100.00;95755.44;1022795;28;20035;-72
2023/07/23 01:02:12;;;;;;;5.65;3.35;;;;;;;14.85;100.00;95747.81;1019233;29;20055;-72
2023/07/23 01:02:43;;;;;;;4.30;2.83;;;;;;;14.80;100.00;95742.63;1019039;29;20498;-72
2023/07/23 01:03:14;;;;;;;4.90;3.65;;;;;;;14.84;100.00;95751.53;1023207;29;20027;-72
2023/07/23 01:03:44;;;;;;;5.68;3.00;;;;;;;14.84;100.00;95748.09;1018974;29;20055;-73
2023/07/23 01:04:15;;;;;;;4.72;3.00;;;;;;;14.83;100.00;95752.59;1019430;29;20043;-72
2023/07/23 01:04:46;;;;;;;6.30;3.00;;;;;;;14.75;100.00;95740.03;1018976;29;20073;-71
2023/07/23 01:05:16;;;;;;;4.85;2.80;;;;;;;14.81;100.00;95743.41;1023083;29;20528;-72
2023/07/23 01:05:46;;;;;;;15.57;3.20;;;;;;;14.80;100.00;95747.91;1023232;28;20413;-72
2023/07/23 01:06:17;;;;;;;3.75;2.83;;;;;;;14.74;100.00;95749.03;1019208;29;20027;-72
2023/07/23 01:06:47;;;;;;;5.60;2.78;;;;;;;14.79;100.00;95746.34;1018982;29;20552;-71
2023/07/23 01:07:18;;;;;;;6.38;3.30;;;;;;;14.75;100.00;95745.31;1015146;29;20032;-71
2023/07/23 01:07:48;;;;;;;6.85;3.40;;;;;;;14.74;100.00;95743.75;1019026;29;20092;-71
2023/07/23 01:08:19;;;;;;;6.63;3.33;;;;;;;14.77;100.00;95743.19;1019089;28;20039;-72
2023/07/23 01:08:50;;;;;;;4.20;2.72;;;;;;;14.73;100.00;95741.41;1022027;29;20028;-72
2023/07/23 01:09:21;;;;;;;6.30;3.40;;;;;;;14.76;100.00;95746.91;1026234;28;20031;-71
2023/07/23 01:09:51;;;;;;;5.18;3.47;;;;;;;14.72;100.00;95743.28;1023045;29;20023;-70
2023/07/23 01:10:21;;;;;;;5.63;3.13;;;;;;;14.76;100.00;95746.13;1018569;29;20024;-74
2023/07/23 01:10:52;;;;;;;4.13;3.00;;;;;;;14.73;100.00;95747.47;1018941;29;20036;-72
2023/07/23 01:11:23;;;;;;;4.00;3.00;;;;;;;14.74;100.00;95748.25;1015146;29;20072;-73
2023/07/23 01:11:53;;;;;;;3.63;2.70;;;;;;;14.73;100.00;95746.69;1011343;29;20056;-73
2023/07/23 01:12:24;;;;;;;4.72;3.30;;;;;;;14.71;100.00;95738.28;1022248;29;20038;-71
2023/07/23 01:12:54;;;;;;;3.75;3.00;;;;;;;14.66;100.00;95733.88;1019092;29;20155;-73
2023/07/23 01:13:25;;;;;;;4.97;3.10;;;;;;;14.64;100.00;95743.13;1022385;29;20030;-74
2023/07/23 01:13:55;;;;;;;7.97;3.10;;;;;;;14.67;100.00;95745.22;1019120;29;20054;-74
2023/07/23 01:14:26;;;;;;;3.28;2.67;;;;;;;14.67;100.00;95745.22;1018287;29;20036;-71
2023/07/23 01:14:57;;;;;;;7.38;3.40;;;;;;;14.67;100.00;95745.22;1015165;29;20434;-72
2023/07/23 01:15:28;;;;;;;4.75;3.20;;;;;;;14.49;100.00;95717.72;1015539;29;20688;-71
2023/07/23 01:15:58;;;;;;;3.80;2.95;;;;;;;14.64;100.00;95743.91;1019012;29;20035;-72
2023/07/23 01:16:29;;;;;;;3.85;2.80;;;;;;;14.57;100.00;95733.72;1019262;29;20028;-71
2023/07/23 01:16:59;;;;;;;4.95;3.25;;;;;;;14.64;100.00;95743.13;1015009;29;20071;-71
2023/07/23 01:17:30;;;;;;;4.47;3.30;;;;;;;14.54;100.00;95726.38;1015208;29;20084;-73
2023/07/23 01:18:00;;;;;;;4.80;2.75;;;;;;;14.65;100.00;95744.69;1019226;29;20047;-72
2023/07/23 01:18:31;;;;;;;4.60;3.10;;;;;;;14.61;100.00;95739.22;1026289;28;20037;-74
2023/07/23 01:19:02;;;;;;;5.63;3.10;;;;;;;14.60;100.00;95741.06;1027010;28;20035;-74
2023/07/23 01:19:32;;;;;;;4.95;3.20;;;;;;;14.59;100.00;95746.66;1023509;28;20023;-73
2023/07/23 01:20:07;;;;;;;4.28;2.85;;;;;;;14.59;100.00;95744.78;1019346;29;20098;-72
2023/07/23 01:20:37;;;;;;;7.10;3.42;;;;;;;14.58;100.00;95740.56;1018460;29;20036;-73
2023/07/23 01:21:10;;;;;;;12.90;3.20;;;;;;;14.57;100.00;95743.50;1018035;29;20040;-72
2023/07/23 01:21:40;;;;;;;4.50;3.30;;;;;;;14.56;100.00;95747.22;1015874;29;20123;-72
2023/07/23 01:22:11;;;;;;;5.30;3.25;;;;;;;14.54;100.00;95744.84;1019173;29;20103;-72
2023/07/23 01:22:41;;;;;;;4.68;3.28;;;;;;;14.49;100.00;95730.94;1019351;28;20028;-71
2023/07/23 01:23:11;;;;;;;5.90;3.55;;;;;;;14.53;100.00;95742.53;1023082;28;20031;-73
2023/07/23 01:23:42;;;;;;;4.70;2.83;;;;;;;14.53;100.00;95738.00;1019002;29;20036;-71
2023/07/23 01:24:12;;;;;;;5.88;3.35;;;;;;;14.53;100.00;95742.53;1019264;29;20043;-72
2023/07/23 01:24:43;;;;;;;4.38;2.97;;;;;;;14.48;100.00;95729.34;1015095;29;20043;-71
2023/07/23 01:25:13;;;;;;;7.55;3.28;;;;;;;14.48;100.00;95732.75;1019281;29;20027;-72
2023/07/23 01:25:44;;;;;;;5.03;3.40;;;;;;;14.50;100.00;95743.06;1015191;29;20024;-73
2023/07/23 01:26:16;;;;;;;4.43;2.90;;;;;;;14.47;100.00;95739.13;1021703;28;20031;-72
2023/07/23 01:26:46;;;;;;;7.15;3.50;;;;;;;14.50;100.00;95738.59;1019021;29;20034;-71
2023/07/23 01:27:17;;;;;;;4.93;3.33;;;;;;;14.49;100.00;95739.63;1015263;29;20031;-73
2023/07/23 01:27:48;;;;;;;4.25;3.28;;;;;;;14.49;100.00;95738.84;1018912;29;20027;-72
2023/07/23 01:28:18;;;;;;;5.38;3.10;;;;;;;14.47;100.00;95743.63;1015149;29;20037;-72
2023/07/23 01:28:49;;;;;;;4.63;3.03;;;;;;;14.46;100.00;95750.00;1019261;28;20753;-72
2023/07/23 01:29:19;;;;;;;5.82;3.30;;;;;;;14.45;100.00;95748.41;1027037;28;20031;-73
2023/07/23 01:29:50;;;;;;;6.10;3.30;;;;;;;14.44;100.00;95744.19;1019083;28;20032;-73
2023/07/23 01:30:20;;;;;;;5.13;3.03;;;;;;;14.45;100.00;95740.47;1018542;29;20110;-71
2023/07/23 01:30:54;;;;;;;3.88;3.10;;;;;;;14.43;100.00;95732.09;1015045;29;20039;-71
2023/07/23 01:31:24;;;;;;;7.38;2.97;;;;;;;14.48;100.00;95739.91;1015037;29;20039;-74
2023/07/23 01:31:55;;;;;;;5.00;2.83;;;;;;;14.46;100.00;95734.94;1015046;29;20044;-72
2023/07/23 01:32:25;;;;;;;4.53;2.70;;;;;;;14.47;100.00;95738.34;1018895;29;20047;-71
2023/07/23 01:32:56;;;;;;;4.00;3.22;;;;;;;14.47;100.00;95739.13;1019468;28;20031;-72
2023/07/23 01:33:28;;;;;;;5.18;3.20;;;;;;;14.46;100.00;95734.16;1019202;29;20047;-73
2023/07/23 01:34:00;;;;;;;3.25;2.67;;;;;;;14.50;100.00;95732.50;1018898;29;20114;-71
2023/07/23 01:34:31;;;;;;;4.30;3.28;;;;;;;14.50;100.00;95737.78;1015188;29;20023;-72
2023/07/23 01:35:06;;;;;;;4.00;2.67;;;;;;;14.49;100.00;95734.34;1015215;29;20058;-73
2023/07/23 01:35:36;;;;;;;4.13;2.72;;;;;;;14.47;100.00;95727.78;1021444;29;20921;-73
2023/07/23 01:36:07;;;;;;;3.85;2.90;;;;;;;14.48;100.00;95734.63;1018949;29;20027;-71
2023/07/23 01:36:37;;;;;;;4.45;2.88;;;;;;;14.50;100.00;95733.31;1022716;29;20090;-73
2023/07/23 01:37:09;;;;;;;8.52;3.25;;;;;;;14.51;100.00;95734.09;1015087;29;20035;-73
2023/07/23 01:37:39;;;;;;;5.15;3.13;;;;;;;14.48;100.00;95729.34;1013600;29;20494;-73
2023/07/23 01:38:09;;;;;;;6.47;2.80;;;;;;;14.43;100.00;95722.31;1019095;29;20034;-72
2023/07/23 01:38:40;;;;;;;4.63;3.03;;;;;;;14.42;100.00;95727.84;1022987;29;20060;-72
2023/07/23 01:39:10;;;;;;;4.43;2.90;;;;;;;14.45;100.00;95732.56;1019218;29;20142;-70
2023/07/23 01:39:42;;;;;;;5.43;3.08;;;;;;;14.48;100.00;95729.34;1014999;29;20059;-74
2023/07/23 01:40:13;;;;;;;4.20;3.30;;;;;;;14.43;100.00;95726.81;1015014;29;20028;-74
2023/07/23 01:40:44;;;;;;;4.97;3.10;;;;;;;14.45;100.00;95729.91;1014371;29;20020;-72
2023/07/23 01:41:14;;;;;;;5.18;3.10;;;;;;;14.43;100.00;95738.13;1022923;29;20035;-73
2023/07/23 01:41:45;;;;;;;5.55;3.05;;;;;;;14.45;100.00;95737.84;1026939;28;20030;-72
2023/07/23 01:42:15;;;;;;;4.03;2.97;;;;;;;14.42;100.00;95726.03;1026938;28;20045;-71
2023/07/23 01:42:45;;;;;;;5.25;3.10;;;;;;;14.46;100.00;95729.66;1018880;29;20079;-73
2023/07/23 01:43:16;;;;;;;5.38;3.13;;;;;;;14.47;100.00;95727.78;1017688;29;20043;-73
2023/07/23 01:43:47;;;;;;;6.20;2.92;;;;;;;14.45;100.00;95728.06;1015303;29;20410;-74
2023/07/23 01:44:17;;;;;;;5.03;2.70;;;;;;;14.45;100.00;95729.91;1015117;29;20038;-74
2023/07/23 01:44:47;;;;;;;4.32;3.17;;;;;;;14.45;100.00;95727.28;1022828;29;20621;-73
2023/07/23 01:45:18;;;;;;;4.35;2.90;;;;;;;14.45;100.00;95724.63;1023014;28;20038;-73
2023/07/23 01:45:48;;;;;;;4.20;2.85;;;;;;;14.44;100.00;95723.06;1022912;29;20038;-73
2023/07/23 01:46:19;;;;;;;3.42;2.95;;;;;;;14.45;100.00;95730.69;1015002;29;20032;-71
2023/07/23 01:46:50;;;;;;;5.90;2.90;;;;;;;14.43;100.00;95726.81;1018963;29;20815;-72
2023/07/23 01:47:20;;;;;;;5.60;3.13;;;;;;;14.47;100.00;95733.06;1019027;29;20421;-73
2023/07/23 01:47:51;;;;;;;6.90;3.20;;;;;;;14.42;100.00;95722.56;1019173;29;20028;-71
2023/07/23 01:48:21;;;;;;;4.95;2.92;;;;;;;14.41;100.00;95719.16;1018794;29;20401;-73
2023/07/23 01:48:52;;;;;;;6.57;3.17;;;;;;;14.41;100.00;95718.38;1019086;29;20812;-72
2023/07/23 01:49:22;;;;;;;5.85;3.10;;;;;;;14.47;100.00;95730.44;1019003;29;20032;-73
2023/07/23 01:49:53;;;;;;;7.07;3.17;;;;;;;14.45;100.00;95732.56;1015077;29;20066;-72
2023/07/23 01:50:23;;;;;;;4.40;2.80;;;;;;;14.46;100.00;95726.22;1014418;29;20036;-71
2023/07/23 01:50:54;;;;;;;5.35;2.92;;;;;;;14.45;100.00;95730.69;1018871;28;20110;-75
2023/07/23 01:51:24;;;;;;;3.92;2.97;;;;;;;14.46;100.00;95726.22;1019161;29;20466;-73
2023/07/23 01:51:55;;;;;;;5.63;2.67;;;;;;;14.41;100.00;95724.44;1022665;28;20035;-72
2023/07/23 01:52:25;;;;;;;5.35;3.00;;;;;;;14.44;100.00;95728.34;1026829;28;20126;-72
2023/07/23 01:52:56;;;;;;;5.38;2.90;;;;;;;14.45;100.00;95725.41;1022911;29;20054;-72
2023/07/23 01:53:27;;;;;;;5.60;3.17;;;;;;;14.48;100.00;95734.63;1022909;28;20027;-71
2023/07/23 01:53:58;;;;;;;4.05;3.00;;;;;;;14.49;100.00;95726.44;1014945;29;20103;-71
2023/07/23 01:54:28;;;;;;;4.78;3.00;;;;;;;14.50;100.00;95735.13;1015274;29;20032;-71
2023/07/23 01:54:59;;;;;;;4.72;3.20;;;;;;;14.44;100.00;95717.78;1018840;29;20512;-73
2023/07/23 01:55:29;;;;;;;5.68;3.50;;;;;;;14.49;100.00;95730.94;1020208;28;20445;-72
2023/07/23 01:56:00;;;;;;;3.95;2.63;;;;;;;14.50;100.00;95727.22;1022914;29;20035;-73
2023/07/23 01:56:30;;;;;;;3.65;2.78;;;;;;;14.50;100.00;95732.50;1019054;28;20032;-72
2023/07/23 01:57:02;;;;;;;3.78;3.13;;;;;;;14.50;100.00;95728.03;1022407;28;20031;-71
2023/07/23 01:57:33;;;;;;;4.93;2.70;;;;;;;14.50;100.00;95733.31;1019093;29;20039;-74
2023/07/23 01:58:03;;;;;;;4.07;2.80;;;;;;;14.48;100.00;95724.06;1019180;29;20035;-70
2023/07/23 01:58:33;;;;;;;4.97;3.30;;;;;;;14.50;100.00;95730.66;1016869;29;20063;-71
2023/07/23 01:59:04;;;;;;;6.63;3.20;;;;;;;14.50;100.00;95724.56;1022741;29;20068;-71
2023/07/23 01:59:35;;;;;;;4.50;2.92;;;;;;;14.51;100.00;95723.53;1023093;28;20034;-71
2023/07/23 02:00:06;;;;;;;6.22;2.95;;;;;;;14.47;100.00;95717.22;1024077;28;20070;-71
2023/07/23 02:00:37;;;;;;;3.60;2.90;;;;;;;14.47;100.00;95722.50;1026306;28;20037;-71
2023/07/23 02:01:08;;;;;;;4.63;3.03;;;;;;;14.49;100.00;95726.44;1022835;28;20034;-71
2023/07/23 02:01:38;;;;;;;5.05;3.13;;;;;;;14.45;100.00;95719.34;1027095;28;20092;-74
2023/07/23 02:02:10;;;;;;;3.97;3.00;;;;;;;14.49;100.00;95725.66;1027046;28;20030;-70
2023/07/23 02:02:41;;;;;;;5.05;3.10;;;;;;;14.49;100.00;95723.03;1023415;28;20031;-72
2023/07/23 02:03:11;;;;;;;4.35;3.35;;;;;;;14.47;100.00;95720.66;1026972;28;20023;-71
2023/07/23 02:03:41;;;;;;;4.45;3.00;;;;;;;14.28;100.00;95688.97;1026665;28;20027;-72
2023/07/23 02:04:12;;;;;;;4.53;2.80;;;;;;;14.37;100.00;95708.38;1022958;29;20019;-73
2023/07/23 02:04:42;;;;;;;6.07;3.10;;;;;;;14.44;100.00;95723.84;1014921;29;20024;-71
2023/07/23 02:05:17;;;;;;;4.97;2.72;;;;;;;14.44;100.00;95723.06;1014950;29;20043;-70
2023/07/23 02:06:00;;;;;;;4.80;3.35;;;;;;;14.36;100.00;95711.31;1019664;29;20553;-71
2023/07/23 02:06:31;;;;;;;3.75;2.70;;;;;;;14.42;100.00;95714.66;1026877;28;20026;-73
2023/07/23 02:07:02;;;;;;;3.88;3.10;;;;;;;14.39;100.00;95711.53;1023145;28;20118;-74
2023/07/23 02:07:32;;;;;;;5.07;3.67;;;;;;;14.43;100.00;95716.25;1018979;29;20103;-73
2023/07/23 02:08:03;;;;;;;4.13;2.75;;;;;;;14.43;100.00;95719.66;1018784;29;20601;-72
2023/07/23 02:08:33;;;;;;;6.82;3.53;;;;;;;14.42;100.00;95720.75;1018789;29;20050;-71
2023/07/23 02:09:04;;;;;;;3.97;3.08;;;;;;;14.42;100.00;95719.94;1015199;29;20028;-72
2023/07/23 02:09:34;;;;;;;7.05;2.90;;;;;;;14.41;100.00;95719.16;1023153;28;20027;-71
2023/07/23 02:10:06;;;;;;;7.10;2.78;;;;;;;14.42;100.00;95725.22;1026858;28;20027;-72
2023/07/23 02:10:36;;;;;;;3.97;3.22;;;;;;;14.42;100.00;95725.22;1026505;28;20027;-71
2023/07/23 02:11:07;;;;;;;5.88;3.10;;;;;;;14.39;100.00;95719.44;1030364;28;20045;-71
2023/07/23 02:11:37;;;;;;;5.25;2.97;;;;;;;14.39;100.00;95716.81;1030961;28;20026;-71
2023/07/23 02:12:08;;;;;;;5.25;2.83;;;;;;;14.40;100.00;95722.88;1031335;28;20030;-72
2023/07/23 02:12:38;;;;;;;5.72;2.97;;;;;;;14.36;100.00;95713.97;1034793;28;20036;-71
2023/07/23 02:13:09;;;;;;;4.15;2.90;;;;;;;14.33;100.00;95712.66;1026944;28;20555;-70
2023/07/23 02:13:39;;;;;;;5.75;2.80;;;;;;;14.43;100.00;95721.53;1022817;29;20024;-72
2023/07/23 02:14:10;;;;;;;5.85;3.13;;;;;;;14.44;100.00;95723.06;1021724;29;20027;-71
2023/07/23 02:14:40;;;;;;;6.40;2.67;;;;;;;14.43;100.00;95717.03;1019037;28;20027;-71
2023/07/23 02:15:11;;;;;;;4.18;3.00;;;;;;;14.45;100.00;95719.34;1027022;28;20729;-73
2023/07/23 02:15:43;;;;;;;4.63;3.10;;;;;;;14.47;100.00;95725.94;1022750;29;20060;-74
2023/07/23 02:16:19;;;;;;;4.72;3.22;;;;;;;14.48;100.00;95716.16;1022814;29;20038;-73
2023/07/23 02:16:49;;;;;;;6.28;2.95;;;;;;;14.47;100.00;95727.78;1015987;29;20028;-71
2023/07/23 02:17:19;;;;;;;4.80;3.00;;;;;;;14.47;100.00;95723.28;1020691;28;20079;-72
2023/07/23 02:17:50;;;;;;;5.32;2.53;;;;;;;14.47;100.00;95719.88;1022722;28;20027;-70
2023/07/23 02:18:20;;;;;;;3.08;2.42;;;;;;;14.43;100.00;95721.53;1019013;28;20020;-73
2023/07/23 02:18:51;;;;;;;3.35;2.72;;;;;;;14.39;100.00;95710.75;1022924;29;20027;-72
2023/07/23 02:19:22;;;;;;;3.88;2.95;;;;;;;14.41;100.00;95711.22;1022751;28;20378;-71
2023/07/23 02:19:52;;;;;;;4.80;2.92;;;;;;;14.44;100.00;95717.78;1022968;28;20103;-73
2023/07/23 02:20:23;;;;;;;4.05;2.78;;;;;;;14.45;100.00;95719.34;1022358;29;20548;-71
2023/07/23 02:20:53;;;;;;;3.92;2.90;;;;;;;14.44;100.00;95717.78;1018685;29;20027;-73
2023/07/23 02:21:23;;;;;;;3.75;2.45;;;;;;;14.43;100.00;95721.53;1019287;29;20080;-74
2023/07/23 02:21:54;;;;;;;4.00;2.70;;;;;;;14.37;100.00;95711.03;1018049;28;20497;-72
2023/07/23 02:22:24;;;;;;;4.53;3.05;;;;;;;14.41;100.00;95724.44;1019017;28;20019;-71
2023/07/23 02:22:56;;;;;;;4.18;2.83;;;;;;;14.38;100.00;95714.44;1023346;29;20030;-70